createdAt,value
2018-08-31T00:02:17.154Z,89.70
2018-08-31T00:05:39.597Z,90.00
2018-08-31T00:08:19.417Z,90.00
2018-08-31T00:11:35.080Z,90.00
2018-08-31T00:14:03.488Z,90.30
2018-08-31T00:16:31.944Z,90.50
2018-08-31T00:19:00.424Z,90.50
2018-08-31T00:21:28.849Z,90.60
2018-08-31T00:24:08.480Z,90.50
2018-08-31T00:26:48.152Z,90.50
2018-08-31T00:29:36.717Z,90.40
2018-08-31T00:34:20.721Z,90.30
2018-08-31T00:36:59.300Z,90.30
2018-08-31T00:41:42.052Z,90.60
2018-08-31T00:46:19.242Z,90.60
2018-08-31T00:48:47.708Z,90.90
2018-08-31T00:51:16.117Z,91.00
2018-08-31T00:53:44.581Z,91.10
2018-08-31T00:56:12.985Z,90.80
2018-08-31T00:58:41.400Z,90.60
2018-08-31T01:01:09.798Z,90.50
2018-08-31T01:03:38.332Z,90.50
2018-08-31T01:06:06.808Z,90.50
2018-08-31T01:08:35.213Z,90.60
2018-08-31T01:11:03.624Z,90.50
2018-08-31T01:13:32.041Z,90.50
2018-08-31T01:16:00.440Z,90.50
2018-08-31T01:18:28.869Z,90.20
2018-08-31T01:20:57.251Z,90.00
2018-08-31T01:23:25.696Z,89.70
2018-08-31T01:25:54.083Z,89.90
2018-08-31T01:28:22.556Z,89.90
2018-08-31T01:30:51.028Z,89.80
2018-08-31T01:33:19.496Z,89.00
2018-08-31T01:35:47.904Z,89.00
2018-08-31T01:38:16.332Z,89.20
2018-08-31T01:40:44.728Z,89.20
2018-08-31T01:43:13.136Z,89.70
2018-08-31T01:45:41.548Z,89.70
2018-08-31T01:48:09.952Z,89.80
2018-08-31T01:50:42.567Z,88.90
2018-08-31T01:53:11.032Z,88.90
2018-08-31T01:55:39.407Z,88.50
2018-08-31T01:58:07.855Z,88.60
2018-08-31T02:00:36.255Z,88.40
2018-08-31T02:03:04.653Z,87.80
2018-08-31T02:05:33.063Z,87.20
2018-08-31T02:08:01.444Z,87.20
2018-08-31T02:10:29.879Z,87.20
2018-08-31T02:12:58.303Z,87.20
2018-08-31T02:15:26.774Z,87.10
2018-08-31T02:17:55.164Z,86.10
2018-08-31T02:20:23.582Z,86.80
2018-08-31T02:22:52.014Z,86.60
2018-08-31T02:25:20.462Z,86.20
2018-08-31T02:27:48.880Z,86.10
2018-08-31T02:30:17.284Z,86.10
2018-08-31T02:32:45.670Z,86.10
2018-08-31T02:35:14.147Z,85.70
2018-08-31T02:37:42.596Z,85.80
2018-08-31T02:40:11.063Z,85.70
2018-08-31T02:42:39.512Z,85.80
2018-08-31T02:45:08.075Z,86.70
2018-08-31T02:47:36.532Z,86.80
2018-08-31T02:50:05.071Z,86.80
2018-08-31T02:52:33.496Z,87.10
2018-08-31T02:55:01.945Z,87.00
2018-08-31T02:57:30.390Z,86.90
2018-08-31T02:59:58.840Z,87.30
2018-08-31T03:02:27.268Z,87.00
2018-08-31T03:04:55.703Z,86.90
2018-08-31T03:07:24.136Z,86.90
2018-08-31T03:09:52.597Z,87.00
2018-08-31T03:12:21.052Z,86.90
2018-08-31T03:14:49.506Z,87.00
2018-08-31T03:17:17.956Z,86.90
2018-08-31T03:19:46.439Z,86.90
2018-08-31T03:22:14.865Z,86.80
2018-08-31T03:24:43.328Z,85.70
2018-08-31T03:27:11.752Z,85.50
2018-08-31T03:29:40.178Z,85.50
2018-08-31T03:32:08.638Z,85.00
2018-08-31T03:34:37.090Z,84.80
2018-08-31T03:37:05.791Z,84.40
2018-08-31T03:39:34.167Z,84.30
2018-08-31T03:42:02.632Z,83.90
2018-08-31T03:44:31.085Z,83.50
2018-08-31T03:46:59.570Z,83.70
2018-08-31T03:49:28.028Z,83.80
2018-08-31T03:51:56.492Z,82.00
2018-08-31T03:54:24.939Z,83.40
2018-08-31T03:56:53.395Z,82.60
2018-08-31T03:59:21.877Z,82.90
2018-08-31T04:01:50.326Z,82.20
2018-08-31T04:04:18.749Z,81.90
2018-08-31T04:06:47.222Z,82.20
2018-08-31T04:09:15.640Z,83.30
2018-08-31T04:11:44.101Z,83.40
2018-08-31T04:14:12.585Z,82.90
2018-08-31T04:16:41.040Z,83.50
2018-08-31T04:19:14.844Z,82.80
2018-08-31T04:21:43.556Z,83.00
2018-08-31T04:24:12.847Z,83.70
2018-08-31T04:26:41.290Z,83.00
2018-08-31T04:29:10.096Z,82.70
2018-08-31T04:31:38.845Z,81.90
2018-08-31T04:34:07.646Z,82.80
2018-08-31T04:36:36.175Z,83.30
2018-08-31T04:39:06.540Z,83.30
2018-08-31T04:41:35.009Z,83.60
2018-08-31T04:44:03.455Z,82.80
2018-08-31T04:46:31.940Z,82.80
2018-08-31T04:49:00.368Z,82.50
2018-08-31T04:51:29.014Z,82.80
2018-08-31T04:53:57.989Z,82.40
2018-08-31T04:56:26.524Z,81.80
2018-08-31T04:58:55.017Z,81.50
2018-08-31T05:01:23.468Z,81.60
2018-08-31T05:03:52.041Z,81.60
2018-08-31T05:06:20.503Z,81.30
2018-08-31T05:08:48.963Z,81.40
2018-08-31T05:11:18.510Z,81.20
2018-08-31T05:13:46.937Z,81.20
2018-08-31T05:16:15.368Z,80.60
2018-08-31T05:18:43.824Z,81.40
2018-08-31T05:21:12.271Z,81.50
2018-08-31T05:23:41.041Z,82.30
2018-08-31T05:26:09.506Z,81.70
2018-08-31T05:28:37.948Z,81.30
2018-08-31T05:31:06.512Z,81.10
2018-08-31T05:33:35.019Z,80.40
2018-08-31T05:36:03.424Z,79.10
2018-08-31T05:38:31.840Z,80.80
2018-08-31T05:41:00.228Z,81.00
2018-08-31T05:43:28.636Z,80.90
2018-08-31T05:45:57.048Z,81.30
2018-08-31T05:48:25.501Z,80.40
2018-08-31T05:50:53.925Z,79.00
2018-08-31T05:53:22.344Z,80.10
2018-08-31T05:55:50.769Z,80.50
2018-08-31T05:58:19.200Z,80.60
2018-08-31T06:00:47.667Z,80.20
2018-08-31T06:03:16.112Z,81.60
2018-08-31T06:05:44.504Z,82.00
2018-08-31T06:08:12.920Z,82.80
2018-08-31T06:10:41.329Z,81.80
2018-08-31T06:13:09.853Z,82.30
2018-08-31T06:15:38.289Z,82.20
2018-08-31T06:18:06.800Z,81.70
2018-08-31T06:20:35.205Z,81.70
2018-08-31T06:23:03.701Z,80.70
2018-08-31T06:25:32.153Z,81.10
2018-08-31T06:28:00.552Z,81.10
2018-08-31T06:30:28.974Z,80.20
2018-08-31T06:32:57.392Z,80.10
2018-08-31T06:35:25.792Z,80.70
2018-08-31T06:37:54.208Z,79.90
2018-08-31T06:40:22.613Z,79.60
2018-08-31T06:42:51.025Z,79.10
2018-08-31T06:45:19.447Z,79.10
2018-08-31T06:47:47.924Z,79.10
2018-08-31T06:50:16.337Z,79.10
2018-08-31T06:52:44.733Z,78.40
2018-08-31T06:55:13.148Z,77.70
2018-08-31T06:57:41.544Z,77.40
2018-08-31T07:00:09.993Z,76.50
2018-08-31T07:02:38.376Z,76.30
2018-08-31T07:05:07.449Z,75.50
2018-08-31T07:07:35.901Z,76.00
2018-08-31T07:10:04.515Z,76.70
2018-08-31T07:12:32.938Z,76.10
2018-08-31T07:15:01.329Z,75.70
2018-08-31T07:17:29.708Z,76.30
2018-08-31T07:19:58.284Z,76.60
2018-08-31T07:22:26.609Z,76.30
2018-08-31T07:24:55.053Z,76.40
2018-08-31T07:27:23.459Z,76.40
2018-08-31T07:29:51.873Z,77.10
2018-08-31T07:32:20.244Z,77.60
2018-08-31T07:34:48.661Z,77.10
2018-08-31T07:37:17.094Z,77.20
2018-08-31T07:39:45.564Z,77.20
2018-08-31T07:42:13.996Z,77.50
2018-08-31T07:44:42.400Z,77.60
2018-08-31T07:47:10.793Z,77.70
2018-08-31T07:49:39.208Z,77.90
2018-08-31T07:52:07.604Z,77.50
2018-08-31T07:54:36.069Z,77.80
2018-08-31T07:57:04.492Z,78.40
2018-08-31T07:59:32.893Z,79.00
2018-08-31T08:02:01.292Z,79.20
2018-08-31T08:04:29.701Z,79.30
2018-08-31T08:06:58.103Z,79.00
2018-08-31T08:09:26.496Z,79.30
2018-08-31T08:11:54.911Z,79.50
2018-08-31T08:14:23.322Z,79.40
2018-08-31T08:16:51.751Z,79.50
2018-08-31T08:19:20.217Z,79.50
2018-08-31T08:21:48.643Z,79.30
2018-08-31T08:24:17.028Z,79.60
2018-08-31T08:26:45.467Z,79.60
2018-08-31T08:29:13.863Z,78.80
2018-08-31T08:31:42.308Z,79.40
2018-08-31T08:34:10.712Z,79.10
2018-08-31T08:36:39.144Z,77.40
2018-08-31T08:39:07.916Z,77.70
2018-08-31T08:41:36.332Z,77.90
2018-08-31T08:44:05.073Z,77.80
2018-08-31T08:46:33.489Z,77.70
2018-08-31T08:49:01.852Z,77.20
2018-08-31T08:51:30.260Z,77.30
2018-08-31T08:53:58.652Z,77.60
2018-08-31T08:56:27.036Z,77.90
2018-08-31T08:58:55.537Z,77.30
2018-08-31T09:01:23.997Z,76.90
2018-08-31T09:03:52.360Z,76.40
2018-08-31T09:06:20.769Z,76.30
2018-08-31T09:08:49.201Z,75.90
2018-08-31T09:11:17.668Z,76.00
2018-08-31T09:13:46.064Z,75.90
2018-08-31T09:16:14.509Z,74.90
2018-08-31T09:18:42.903Z,75.30
2018-08-31T09:21:11.309Z,74.60
2018-08-31T09:23:39.748Z,75.30
2018-08-31T09:26:10.784Z,75.00
2018-08-31T09:28:39.187Z,75.20
2018-08-31T09:31:12.697Z,75.40
2018-08-31T09:33:41.204Z,75.30
2018-08-31T09:36:10.126Z,74.90
2018-08-31T09:38:38.687Z,75.40
2018-08-31T09:41:07.665Z,75.50
2018-08-31T09:43:36.222Z,75.40
2018-08-31T09:46:05.044Z,75.60
2018-08-31T09:48:33.524Z,77.90
2018-08-31T09:51:02.073Z,79.30
2018-08-31T09:53:30.577Z,81.30
2018-08-31T09:55:59.036Z,80.20
2018-08-31T09:58:27.536Z,82.80
2018-08-31T10:01:01.257Z,85.00
2018-08-31T10:03:29.739Z,83.80
2018-08-31T10:05:58.181Z,85.30
2018-08-31T10:08:28.256Z,85.80
2018-08-31T10:10:56.850Z,86.20
2018-08-31T10:13:25.721Z,89.00
2018-08-31T10:15:54.164Z,86.40
2018-08-31T10:18:22.712Z,88.00
2018-08-31T10:20:51.172Z,87.90
2018-08-31T10:23:19.642Z,89.80
2018-08-31T10:25:48.092Z,91.40
2018-08-31T10:28:16.588Z,92.20
2018-08-31T10:30:45.125Z,92.90
2018-08-31T10:33:13.612Z,92.40
2018-08-31T10:35:42.060Z,93.80
2018-08-31T10:38:10.497Z,93.20
2018-08-31T10:40:38.936Z,94.70
2018-08-31T10:43:07.389Z,94.10
2018-08-31T10:45:35.861Z,92.70
2018-08-31T10:48:04.312Z,93.30
2018-08-31T10:50:32.753Z,92.50
2018-08-31T10:53:01.184Z,92.30
2018-08-31T10:55:29.637Z,92.30
2018-08-31T10:57:58.080Z,94.00
2018-08-31T11:00:26.516Z,95.10
2018-08-31T11:02:54.917Z,95.20
2018-08-31T11:05:24.264Z,93.10
2018-08-31T11:07:52.675Z,92.10
2018-08-31T11:10:21.145Z,91.10
2018-08-31T11:12:49.675Z,91.70
2018-08-31T11:15:18.068Z,92.40
2018-08-31T11:17:46.560Z,92.40
2018-08-31T11:20:15.035Z,92.70
2018-08-31T11:22:43.518Z,91.60
2018-08-31T11:25:11.956Z,91.80
2018-08-31T11:27:40.402Z,92.40
2018-08-31T11:30:09.728Z,91.40
2018-08-31T11:32:38.225Z,92.20
2018-08-31T11:35:06.804Z,92.40
2018-08-31T11:37:35.384Z,92.40
2018-08-31T11:40:03.966Z,92.40
2018-08-31T11:42:32.492Z,93.10
2018-08-31T11:45:00.977Z,94.20
2018-08-31T11:47:29.432Z,93.30
2018-08-31T11:49:57.872Z,94.00
2018-08-31T11:52:26.328Z,94.20
2018-08-31T11:54:54.844Z,93.90
2018-08-31T11:57:23.285Z,94.40
2018-08-31T11:59:51.753Z,94.70
2018-08-31T12:02:20.288Z,94.20
2018-08-31T12:04:48.761Z,95.00
2018-08-31T12:07:17.258Z,95.40
2018-08-31T12:09:45.701Z,95.80
2018-08-31T12:12:14.204Z,95.50
2018-08-31T12:14:42.689Z,94.50
2018-08-31T12:17:11.153Z,94.10
2018-08-31T12:19:39.622Z,94.40
2018-08-31T12:22:08.103Z,95.50
2018-08-31T12:24:36.567Z,95.60
2018-08-31T12:27:05.040Z,95.20
2018-08-31T12:29:33.490Z,94.30
2018-08-31T12:32:01.961Z,94.70
2018-08-31T12:34:30.427Z,94.60
2018-08-31T12:36:58.896Z,94.80
2018-08-31T12:39:27.389Z,95.20
2018-08-31T12:41:55.845Z,95.50
2018-08-31T12:44:24.427Z,94.70
2018-08-31T12:46:52.863Z,93.80
2018-08-31T12:49:21.352Z,94.30
2018-08-31T12:51:49.817Z,93.50
2018-08-31T12:54:18.273Z,93.40
2018-08-31T12:56:46.814Z,93.00
2018-08-31T12:59:15.349Z,92.40
2018-08-31T13:01:43.846Z,93.50
2018-08-31T13:04:12.325Z,92.40
2018-08-31T13:06:40.792Z,92.80
2018-08-31T13:09:09.296Z,94.50
2018-08-31T13:11:37.829Z,93.00
2018-08-31T13:14:06.316Z,93.70
2018-08-31T13:16:34.800Z,94.20
2018-08-31T13:19:03.284Z,94.80
2018-08-31T13:21:31.796Z,94.60
2018-08-31T13:24:00.358Z,94.20
2018-08-31T13:26:28.824Z,93.30
2018-08-31T13:28:57.365Z,94.70
2018-08-31T13:31:25.820Z,94.80
2018-08-31T13:33:54.372Z,94.60
2018-08-31T13:36:22.820Z,95.20
2018-08-31T13:38:51.322Z,92.90
2018-08-31T13:41:19.906Z,94.00
2018-08-31T13:43:48.396Z,92.70
2018-08-31T13:46:16.872Z,93.70
2018-08-31T13:48:45.320Z,93.80
2018-08-31T13:51:13.756Z,94.20
2018-08-31T13:53:42.484Z,93.70
2018-08-31T13:56:10.985Z,93.70
2018-08-31T13:58:39.476Z,93.90
2018-08-31T14:01:07.956Z,93.90
2018-08-31T14:03:36.469Z,93.60
2018-08-31T14:06:04.963Z,93.90
2018-08-31T14:08:33.438Z,92.60
2018-08-31T14:11:01.908Z,93.10
2018-08-31T14:13:30.409Z,92.60
2018-08-31T14:15:58.944Z,93.00
2018-08-31T14:18:27.423Z,92.60
2018-08-31T14:20:55.917Z,93.10
2018-08-31T14:23:24.504Z,93.70
2018-08-31T14:25:53.009Z,92.60
2018-08-31T14:28:21.525Z,92.70
2018-08-31T14:30:49.984Z,94.00
2018-08-31T14:33:18.457Z,93.90
2018-08-31T14:35:46.951Z,92.80
2018-08-31T14:38:15.382Z,92.70
2018-08-31T14:40:43.844Z,92.70
2018-08-31T14:43:12.335Z,92.70
2018-08-31T14:45:40.825Z,91.80
2018-08-31T14:48:09.397Z,92.70
2018-08-31T14:50:37.882Z,91.90
2018-08-31T14:53:06.385Z,92.70
2018-08-31T14:55:34.912Z,92.70
2018-08-31T14:58:03.390Z,92.50
2018-08-31T15:00:31.853Z,92.20
2018-08-31T15:03:00.354Z,92.70
2018-08-31T15:05:28.825Z,92.70
2018-08-31T15:07:57.288Z,92.70
2018-08-31T15:10:25.769Z,92.70
2018-08-31T15:12:54.276Z,92.20
2018-08-31T15:15:22.725Z,92.30
2018-08-31T15:17:51.205Z,92.00
2018-08-31T15:20:19.699Z,92.00
2018-08-31T15:22:48.161Z,91.60
2018-08-31T15:25:16.681Z,92.20
2018-08-31T15:27:45.165Z,91.60
2018-08-31T15:30:13.624Z,91.40
2018-08-31T15:32:42.091Z,91.70
2018-08-31T15:35:10.512Z,91.30
2018-08-31T15:37:38.941Z,91.20
2018-08-31T15:40:07.396Z,91.50
2018-08-31T15:42:35.846Z,91.80
2018-08-31T15:45:04.301Z,91.10
2018-08-31T15:47:32.708Z,91.10
2018-08-31T15:50:01.122Z,90.60
2018-08-31T15:52:29.524Z,91.00
2018-08-31T15:54:57.931Z,91.00
2018-08-31T15:57:26.375Z,91.30
2018-08-31T15:59:54.789Z,91.30
2018-08-31T16:02:23.251Z,91.30
2018-08-31T16:04:51.648Z,91.60
2018-08-31T16:07:20.096Z,91.70
2018-08-31T16:09:48.527Z,91.80
2018-08-31T16:12:16.933Z,91.70
2018-08-31T16:14:45.364Z,91.50
2018-08-31T16:17:13.883Z,91.30
2018-08-31T16:19:42.286Z,91.40
2018-08-31T16:22:10.710Z,91.70
2018-08-31T16:24:39.107Z,91.70
2018-08-31T16:27:07.537Z,91.50
2018-08-31T16:29:35.949Z,91.90
2018-08-31T16:32:04.381Z,92.30
2018-08-31T16:34:32.842Z,91.90
2018-08-31T16:37:01.354Z,91.80
2018-08-31T16:39:29.812Z,91.50
2018-08-31T16:41:58.257Z,91.40
2018-08-31T16:44:26.737Z,91.50
2018-08-31T16:46:55.228Z,91.30
2018-08-31T16:49:23.720Z,90.90
2018-08-31T16:51:52.213Z,91.00
2018-08-31T16:54:20.703Z,90.80
2018-08-31T16:56:49.188Z,90.60
2018-08-31T16:59:17.766Z,90.60
2018-08-31T17:01:46.224Z,90.30
2018-08-31T17:04:14.720Z,89.70
2018-08-31T17:06:43.191Z,90.30
2018-08-31T17:09:12.900Z,90.40
2018-08-31T17:11:41.708Z,90.00
2018-08-31T17:14:10.265Z,90.10
2018-08-31T17:16:39.098Z,89.70
2018-08-31T17:19:07.554Z,89.20
2018-08-31T17:21:36.162Z,89.10
2018-08-31T17:24:04.681Z,88.80
2018-08-31T17:26:38.574Z,88.40
2018-08-31T17:29:12.913Z,88.50
2018-08-31T17:31:46.658Z,88.50
2018-08-31T17:34:20.400Z,88.50
2018-08-31T17:36:54.249Z,88.60
2018-08-31T17:39:22.668Z,88.50
2018-08-31T17:41:51.070Z,89.30
2018-08-31T17:44:19.552Z,89.50
2018-08-31T17:46:47.952Z,89.10
2018-08-31T17:49:16.387Z,88.40
2018-08-31T17:51:44.804Z,88.50
2018-08-31T17:54:13.324Z,89.80
2018-08-31T17:56:41.724Z,89.10
2018-08-31T17:59:10.168Z,88.40
2018-08-31T18:01:38.569Z,89.30
2018-08-31T18:04:07.059Z,88.30
2018-08-31T18:06:35.488Z,88.00
2018-08-31T18:09:04.345Z,88.20
2018-08-31T18:11:32.750Z,88.10
2018-08-31T18:14:01.165Z,88.50
2018-08-31T18:16:29.669Z,88.20
2018-08-31T18:18:58.594Z,88.80
2018-08-31T18:21:27.027Z,89.20
2018-08-31T18:23:55.436Z,89.10
2018-08-31T18:26:23.845Z,89.20
2018-08-31T18:28:52.296Z,88.90
2018-08-31T18:31:20.701Z,88.50
2018-08-31T18:33:49.244Z,88.10
2018-08-31T18:36:17.716Z,88.00
2018-08-31T18:38:46.180Z,88.00
2018-08-31T18:41:14.652Z,88.00
2018-08-31T18:43:43.143Z,88.20
2018-08-31T18:46:11.628Z,87.90
2018-08-31T18:48:40.115Z,87.90
2018-08-31T18:51:08.587Z,87.90
2018-08-31T18:53:37.070Z,87.90
2018-08-31T18:56:05.540Z,88.10
2018-08-31T18:58:34.021Z,87.90
2018-08-31T19:01:02.572Z,87.80
2018-08-31T19:03:31.045Z,87.80
2018-08-31T19:05:59.526Z,88.10
2018-08-31T19:08:28.014Z,89.20
2018-08-31T19:10:56.464Z,88.90
2018-08-31T19:13:24.900Z,89.00
2018-08-31T19:15:53.356Z,88.90
2018-08-31T19:18:21.821Z,89.40
2018-08-31T19:20:50.285Z,89.80
2018-08-31T19:23:18.724Z,89.70
2018-08-31T19:25:47.218Z,90.20
2018-08-31T19:28:15.680Z,90.00
2018-08-31T19:30:44.152Z,90.20
2018-08-31T19:33:12.625Z,90.00
2018-08-31T19:35:41.076Z,90.20
2018-08-31T19:38:09.497Z,90.20
2018-08-31T19:40:37.917Z,90.40
2018-08-31T19:43:06.344Z,90.60
2018-08-31T19:45:34.818Z,90.60
2018-08-31T19:48:03.240Z,90.70
2018-08-31T19:50:31.670Z,91.00
2018-08-31T19:53:00.080Z,90.90
2018-08-31T19:55:28.567Z,90.90
2018-08-31T19:57:56.968Z,91.20
2018-08-31T20:00:25.434Z,91.40
2018-08-31T20:02:53.887Z,91.60
2018-08-31T20:05:22.358Z,91.70
2018-08-31T20:07:51.000Z,91.80
2018-08-31T20:10:19.483Z,91.90
2018-08-31T20:12:47.904Z,92.20
2018-08-31T20:15:16.465Z,92.10
2018-08-31T20:17:44.869Z,92.20
2018-08-31T20:20:13.329Z,92.20
2018-08-31T20:22:41.745Z,92.20
2018-08-31T20:25:10.198Z,92.20
2018-08-31T20:27:38.616Z,92.20
2018-08-31T20:30:07.404Z,92.20
2018-08-31T20:32:35.822Z,92.20
2018-08-31T20:35:04.373Z,92.20
2018-08-31T20:37:32.825Z,92.40
2018-08-31T20:40:01.225Z,92.50
2018-08-31T20:42:29.701Z,92.60
2018-08-31T20:44:58.141Z,92.60
2018-08-31T20:47:26.607Z,92.50
2018-08-31T20:49:54.984Z,92.60
2018-08-31T20:52:23.451Z,92.70
2018-08-31T20:54:51.864Z,92.80
2018-08-31T20:57:20.325Z,92.60
2018-08-31T20:59:48.760Z,92.80
2018-08-31T21:02:17.215Z,92.80
2018-08-31T21:04:45.644Z,92.90
2018-08-31T21:07:14.149Z,92.60
2018-08-31T21:09:42.548Z,92.80
2018-08-31T21:12:10.992Z,92.90
2018-08-31T21:14:39.388Z,93.10
2018-08-31T21:17:07.829Z,92.80
2018-08-31T21:19:36.285Z,92.80
2018-08-31T21:22:04.738Z,92.90
2018-08-31T21:24:33.172Z,92.90
2018-08-31T21:27:01.612Z,93.20
2018-08-31T21:29:30.018Z,92.90
2018-08-31T21:31:58.499Z,93.20
2018-08-31T21:34:26.944Z,93.40
2018-08-31T21:36:55.398Z,93.00
2018-08-31T21:39:23.833Z,93.00
2018-08-31T21:41:52.305Z,92.80
2018-08-31T21:44:20.753Z,92.80
2018-08-31T21:46:49.208Z,92.90
2018-08-31T21:49:17.744Z,93.20
2018-08-31T21:51:46.167Z,93.20
2018-08-31T21:54:14.609Z,93.10
2018-08-31T21:56:43.081Z,93.10
2018-08-31T21:59:11.560Z,93.50
2018-08-31T22:01:41.158Z,93.30
2018-08-31T22:04:11.092Z,93.30
2018-08-31T22:06:39.768Z,93.30
2018-08-31T22:09:09.624Z,93.30
2018-08-31T22:11:38.076Z,93.30
2018-08-31T22:14:06.560Z,93.40
2018-08-31T22:16:35.025Z,93.50
2018-08-31T22:19:03.956Z,93.40
2018-08-31T22:21:32.491Z,93.20
2018-08-31T22:24:00.980Z,93.30
2018-08-31T22:26:29.448Z,93.40
2018-08-31T22:28:57.915Z,93.60
2018-08-31T22:31:26.356Z,93.50
2018-08-31T22:33:54.837Z,93.50
2018-08-31T22:36:25.192Z,93.60
2018-08-31T22:38:53.644Z,93.70
2018-08-31T22:41:22.047Z,93.70
2018-08-31T22:43:51.777Z,93.80
2018-08-31T22:46:22.579Z,93.70
2018-08-31T22:48:51.391Z,93.80
2018-08-31T22:51:20.736Z,94.00
2018-08-31T22:53:49.369Z,93.80
2018-08-31T22:56:17.880Z,93.70
2018-08-31T22:58:46.517Z,93.80
2018-08-31T23:01:14.961Z,93.90
2018-08-31T23:03:43.416Z,94.10
2018-08-31T23:06:11.840Z,94.30
2018-08-31T23:08:40.269Z,94.30
2018-08-31T23:11:10.806Z,94.30
2018-08-31T23:13:40.958Z,94.40
2018-08-31T23:16:09.339Z,94.70
2018-08-31T23:18:37.816Z,94.80
2018-08-31T23:21:06.608Z,94.80
2018-08-31T23:23:40.376Z,94.80
2018-08-31T23:26:08.772Z,95.00
2018-08-31T23:28:37.180Z,94.80
2018-08-31T23:31:05.764Z,94.90
2018-08-31T23:33:34.274Z,94.90
2018-08-31T23:36:02.723Z,95.30
2018-08-31T23:38:31.160Z,95.00
2018-08-31T23:40:59.624Z,95.00
2018-08-31T23:43:28.057Z,94.80
2018-08-31T23:45:56.691Z,94.70
2018-08-31T23:48:25.125Z,94.70
2018-08-31T23:50:53.588Z,94.50
2018-08-31T23:53:22.032Z,94.50
2018-08-31T23:55:50.503Z,94.30
2018-08-31T23:58:18.988Z,94.60
